createdAt,value
2022-08-14T00:00:30.455Z,0.00
2022-08-14T00:01:30.483Z,0.00
2022-08-14T00:02:31.362Z,0.00
2022-08-14T00:03:30.426Z,0.00
2022-08-14T00:04:35.186Z,0.00
2022-08-14T00:05:31.386Z,0.00
2022-08-14T00:06:30.375Z,0.00
2022-08-14T00:07:30.388Z,0.00
2022-08-14T00:08:44.900Z,0.00
2022-08-14T00:09:32.973Z,0.00
2022-08-14T00:10:50.156Z,0.00
2022-08-14T00:11:32.161Z,0.00
2022-08-14T00:12:33.850Z,0.00
2022-08-14T00:13:31.297Z,0.00
2022-08-14T00:14:30.296Z,0.00
2022-08-14T00:15:43.422Z,0.00
2022-08-14T00:16:40.958Z,0.00
2022-08-14T00:17:31.307Z,0.00
2022-08-14T00:19:18.428Z,0.00
2022-08-14T00:19:31.229Z,0.00
2022-08-14T00:20:41.133Z,0.00
2022-08-14T00:21:31.259Z,0.00
2022-08-14T00:22:56.103Z,0.00
2022-08-14T00:23:31.171Z,0.00
2022-08-14T00:24:30.988Z,0.00
2022-08-14T00:25:30.599Z,0.00
2022-08-14T00:26:31.129Z,0.00
2022-08-14T00:27:30.119Z,0.00
2022-08-14T00:28:32.777Z,0.00
2022-08-14T00:29:30.099Z,0.00
2022-08-14T00:30:30.087Z,0.00
2022-08-14T00:31:35.103Z,0.00
2022-08-14T00:32:53.122Z,0.00
2022-08-14T00:33:52.469Z,0.00
2022-08-14T00:34:37.789Z,0.00
2022-08-14T00:35:43.009Z,0.00
2022-08-14T00:36:35.579Z,0.00
2022-08-14T00:37:32.002Z,0.00
2022-08-14T00:38:29.992Z,0.00
2022-08-14T00:39:29.999Z,0.00
2022-08-14T00:40:33.393Z,0.00
2022-08-14T00:41:30.941Z,0.00
2022-08-14T00:42:55.647Z,0.00
2022-08-14T00:43:32.117Z,0.00
2022-08-14T00:44:32.717Z,0.00
2022-08-14T00:45:30.526Z,0.00
2022-08-14T00:46:32.839Z,0.00
2022-08-14T00:47:29.856Z,0.00
2022-08-14T00:48:34.448Z,0.00
2022-08-14T00:49:30.861Z,0.00
2022-08-14T00:50:30.836Z,0.00
2022-08-14T00:51:36.754Z,0.00
2022-08-14T00:52:30.813Z,0.00
2022-08-14T00:53:29.795Z,0.00
2022-08-14T00:54:29.784Z,0.00
2022-08-14T00:55:30.111Z,0.00
2022-08-14T00:56:31.148Z,0.00
2022-08-14T00:57:29.744Z,0.00
2022-08-14T00:58:32.861Z,0.00
2022-08-14T00:59:29.705Z,0.00
2022-08-14T01:00:37.323Z,0.00
2022-08-14T01:01:30.725Z,0.00
2022-08-14T01:02:31.627Z,0.00
2022-08-14T01:03:30.698Z,0.00
2022-08-14T01:04:38.214Z,0.00
2022-08-14T01:05:51.098Z,0.00
2022-08-14T01:06:34.176Z,0.00
2022-08-14T01:07:29.608Z,0.00
2022-08-14T01:08:52.266Z,0.00
2022-08-14T01:09:30.584Z,0.00
2022-08-14T01:10:38.285Z,0.00
2022-08-14T01:11:31.486Z,0.00
2022-08-14T01:12:30.131Z,0.00
2022-08-14T01:13:42.107Z,0.00
2022-08-14T01:14:30.526Z,0.00
2022-08-14T01:15:31.629Z,0.00
2022-08-14T01:16:31.039Z,0.00
2022-08-14T01:17:29.480Z,0.00
2022-08-14T01:18:29.506Z,0.00
2022-08-14T01:19:29.454Z,0.00
2022-08-14T01:20:29.951Z,0.00
2022-08-14T01:21:29.429Z,0.00
2022-08-14T01:22:30.409Z,0.00
2022-08-14T01:23:41.817Z,0.00
2022-08-14T01:24:34.334Z,0.00
2022-08-14T01:25:29.369Z,0.00
2022-08-14T01:26:34.841Z,0.00
2022-08-14T01:27:30.350Z,0.00
2022-08-14T01:28:46.331Z,0.00
2022-08-14T01:29:46.410Z,0.00
2022-08-14T01:30:30.699Z,0.00
2022-08-14T01:31:30.434Z,0.00
2022-08-14T01:32:30.154Z,0.00
2022-08-14T01:33:29.290Z,0.00
2022-08-14T01:35:19.977Z,0.00
2022-08-14T01:36:03.928Z,0.00
2022-08-14T01:36:30.233Z,0.00
2022-08-14T01:37:31.512Z,0.00
2022-08-14T01:38:29.212Z,0.00
2022-08-14T01:39:29.252Z,0.00
2022-08-14T01:40:33.030Z,0.00
2022-08-14T01:41:31.641Z,0.00
2022-08-14T01:42:31.395Z,0.00
2022-08-14T01:43:30.151Z,0.00
2022-08-14T01:44:32.907Z,0.00
2022-08-14T01:45:29.111Z,0.00
2022-08-14T01:46:33.459Z,0.00
2022-08-14T01:47:33.703Z,0.00
2022-08-14T01:48:30.081Z,0.00
2022-08-14T01:49:33.454Z,0.00
2022-08-14T01:50:30.043Z,0.00
2022-08-14T01:51:29.030Z,0.00
2022-08-14T01:52:34.111Z,0.00
2022-08-14T01:53:33.404Z,0.00
2022-08-14T01:54:37.779Z,0.00
2022-08-14T01:55:29.992Z,0.00
2022-08-14T01:56:37.149Z,0.00
2022-08-14T01:57:49.502Z,0.00
2022-08-14T01:58:30.047Z,0.00
2022-08-14T01:59:38.148Z,0.00
2022-08-14T02:00:29.926Z,0.00
2022-08-14T02:01:29.947Z,0.00
2022-08-14T02:02:28.887Z,0.00
2022-08-14T02:03:30.727Z,0.00
2022-08-14T02:04:55.900Z,0.00
2022-08-14T02:05:34.986Z,0.00
2022-08-14T02:06:32.992Z,0.00
2022-08-14T02:07:44.694Z,0.00
2022-08-14T02:08:35.019Z,0.00
2022-08-14T02:09:29.818Z,0.00
2022-08-14T02:10:28.802Z,0.00
2022-08-14T02:11:29.052Z,0.00
2022-08-14T02:12:29.191Z,0.00
2022-08-14T02:13:28.760Z,0.00
2022-08-14T02:14:31.159Z,0.00
2022-08-14T02:15:28.729Z,0.00
2022-08-14T02:16:28.720Z,0.00
2022-08-14T02:17:28.700Z,0.00
2022-08-14T02:18:28.728Z,0.00
2022-08-14T02:19:28.745Z,0.00
2022-08-14T02:20:28.662Z,0.00
2022-08-14T02:21:28.672Z,0.00
2022-08-14T02:22:33.333Z,0.00
2022-08-14T02:23:32.488Z,0.00
2022-08-14T02:24:39.827Z,0.00
2022-08-14T02:25:29.942Z,0.00
2022-08-14T02:26:29.821Z,0.00
2022-08-14T02:28:24.093Z,0.00
2022-08-14T02:28:57.913Z,0.00
2022-08-14T02:29:56.199Z,0.00
2022-08-14T02:30:31.355Z,0.00
2022-08-14T02:31:42.570Z,0.00
2022-08-14T02:32:30.283Z,0.00
2022-08-14T02:33:29.613Z,0.00
2022-08-14T02:34:28.483Z,0.00
2022-08-14T02:35:33.105Z,0.00
2022-08-14T02:37:05.063Z,0.00
2022-08-14T02:37:46.969Z,0.00
2022-08-14T02:38:34.185Z,0.00
2022-08-14T02:39:29.475Z,0.00
2022-08-14T02:40:32.241Z,0.00
2022-08-14T02:41:31.843Z,0.00
2022-08-14T02:42:37.356Z,0.00
2022-08-14T02:43:36.733Z,0.00
2022-08-14T02:44:29.930Z,0.00
2022-08-14T02:45:32.988Z,0.00
2022-08-14T02:46:32.351Z,0.00
2022-08-14T02:47:28.337Z,0.00
2022-08-14T02:49:02.532Z,0.00
2022-08-14T02:49:33.110Z,0.00
2022-08-14T02:50:29.307Z,0.00
2022-08-14T02:51:30.422Z,0.00
2022-08-14T02:52:57.193Z,0.00
2022-08-14T02:53:29.681Z,0.00
2022-08-14T02:54:28.216Z,0.00
2022-08-14T02:55:28.216Z,0.00
2022-08-14T02:56:30.077Z,0.00
2022-08-14T02:57:39.723Z,0.00
2022-08-14T02:58:30.607Z,0.00
2022-08-14T02:59:28.801Z,0.00
2022-08-14T03:00:28.146Z,0.00
2022-08-14T03:01:31.356Z,0.00
2022-08-14T03:02:48.602Z,0.00
2022-08-14T03:03:31.876Z,0.00
2022-08-14T03:04:29.119Z,0.00
2022-08-14T03:05:28.102Z,0.00
2022-08-14T03:06:58.074Z,0.00
2022-08-14T03:07:29.112Z,0.00
2022-08-14T03:08:28.065Z,0.00
2022-08-14T03:09:42.009Z,0.00
2022-08-14T03:10:33.248Z,0.00
2022-08-14T03:11:35.156Z,0.00
2022-08-14T03:12:32.445Z,0.00
2022-08-14T03:13:27.969Z,0.00
2022-08-14T03:14:27.958Z,0.00
2022-08-14T03:15:28.005Z,0.00
2022-08-14T03:16:27.939Z,0.00
2022-08-14T03:17:32.026Z,0.00
2022-08-14T03:18:31.754Z,0.00
2022-08-14T03:19:27.902Z,0.00
2022-08-14T03:20:27.911Z,0.00
2022-08-14T03:21:27.896Z,0.00
2022-08-14T03:22:29.896Z,0.00
2022-08-14T03:23:27.859Z,0.00
2022-08-14T03:24:27.830Z,0.00
2022-08-14T03:25:27.813Z,0.00
2022-08-14T03:26:29.597Z,0.00
2022-08-14T03:27:35.551Z,0.00
2022-08-14T03:28:33.132Z,0.00
2022-08-14T03:29:27.794Z,0.00
2022-08-14T03:30:38.931Z,0.00
2022-08-14T03:31:29.267Z,0.00
2022-08-14T03:32:30.545Z,0.00
2022-08-14T03:33:38.306Z,0.00
2022-08-14T03:34:52.670Z,0.00
2022-08-14T03:35:30.941Z,0.00
2022-08-14T03:37:37.336Z,0.00
2022-08-14T03:39:10.283Z,0.00
2022-08-14T03:39:14.530Z,0.00
2022-08-14T03:39:28.752Z,0.00
2022-08-14T03:40:27.630Z,0.00
2022-08-14T03:41:27.609Z,0.00
2022-08-14T03:42:35.778Z,0.00
2022-08-14T03:43:32.677Z,0.00
2022-08-14T03:45:19.769Z,0.00
2022-08-14T03:45:34.493Z,0.00
2022-08-14T03:46:46.636Z,0.00
2022-08-14T03:47:33.666Z,0.00
2022-08-14T03:48:30.986Z,0.00
2022-08-14T03:49:29.252Z,0.00
2022-08-14T03:50:31.467Z,0.00
2022-08-14T03:51:27.524Z,0.00
2022-08-14T03:52:38.453Z,0.00
2022-08-14T03:53:28.453Z,5.62
2022-08-14T03:54:27.442Z,5.62
2022-08-14T03:55:27.433Z,5.62
2022-08-14T03:56:27.423Z,5.62
2022-08-14T03:57:27.413Z,5.62
2022-08-14T03:58:36.600Z,5.62
2022-08-14T03:59:28.649Z,5.62
2022-08-14T04:00:40.423Z,5.62
2022-08-14T04:01:29.331Z,5.62
2022-08-14T04:02:33.330Z,5.62
2022-08-14T04:03:28.327Z,5.62
2022-08-14T04:04:27.315Z,5.62
2022-08-14T04:05:27.306Z,5.62
2022-08-14T04:06:28.492Z,5.62
2022-08-14T04:07:27.295Z,11.25
2022-08-14T04:08:30.559Z,11.25
2022-08-14T04:09:27.352Z,11.25
2022-08-14T04:10:32.386Z,11.25
2022-08-14T04:11:28.224Z,11.25
2022-08-14T04:12:27.237Z,11.25
2022-08-14T04:13:27.884Z,11.25
2022-08-14T04:14:27.181Z,16.88
2022-08-14T04:15:27.169Z,16.88
2022-08-14T04:16:31.643Z,16.88
2022-08-14T04:17:27.148Z,16.88
2022-08-14T04:18:27.138Z,16.88
2022-08-14T04:19:28.138Z,16.88
2022-08-14T04:20:28.110Z,16.88
2022-08-14T04:21:27.098Z,16.88
2022-08-14T04:22:27.089Z,22.50
2022-08-14T04:23:32.915Z,22.50
2022-08-14T04:24:28.098Z,22.50
2022-08-14T04:25:27.046Z,28.12
2022-08-14T04:26:42.401Z,28.12
2022-08-14T04:27:28.048Z,28.12
2022-08-14T04:29:05.331Z,33.75
2022-08-14T04:29:28.000Z,33.75
2022-08-14T04:30:33.004Z,33.75
2022-08-14T04:32:57.772Z,39.38
2022-08-14T04:32:58.270Z,33.75
2022-08-14T04:33:28.007Z,39.38
2022-08-14T04:34:27.836Z,39.38
2022-08-14T04:35:55.165Z,39.38
2022-08-14T04:36:27.893Z,45.00
2022-08-14T04:37:26.881Z,45.00
2022-08-14T04:38:36.796Z,45.00
2022-08-14T04:39:27.934Z,50.62
2022-08-14T04:40:27.902Z,50.62
2022-08-14T04:41:30.300Z,50.62
2022-08-14T04:42:26.823Z,56.25
2022-08-14T04:43:26.813Z,56.25
2022-08-14T04:44:36.758Z,56.25
2022-08-14T04:45:29.669Z,61.88
2022-08-14T04:46:56.073Z,61.88
2022-08-14T04:47:30.729Z,67.50
2022-08-14T04:48:39.999Z,67.50
2022-08-14T04:49:27.762Z,73.12
2022-08-14T04:50:33.668Z,73.12
2022-08-14T04:51:27.752Z,78.75
2022-08-14T04:52:26.694Z,78.75
2022-08-14T04:53:35.492Z,84.38
2022-08-14T04:54:27.675Z,84.38
2022-08-14T04:55:27.700Z,90.00
2022-08-14T04:56:33.640Z,90.00
2022-08-14T04:57:27.636Z,90.00
2022-08-14T04:58:32.084Z,95.62
2022-08-14T04:59:27.748Z,95.62
2022-08-14T05:00:26.588Z,95.62
2022-08-14T05:01:26.646Z,95.62
2022-08-14T05:02:26.592Z,101.25
2022-08-14T05:03:26.555Z,101.25
2022-08-14T05:04:26.535Z,106.88
2022-08-14T05:05:26.545Z,101.25
2022-08-14T05:06:37.787Z,106.88
2022-08-14T05:07:53.894Z,106.88
2022-08-14T05:08:43.614Z,112.50
2022-08-14T05:09:29.161Z,118.12
2022-08-14T05:10:32.281Z,112.50
2022-08-14T05:11:27.449Z,118.12
2022-08-14T05:13:11.819Z,123.75
2022-08-14T05:13:30.229Z,123.75
2022-08-14T05:14:45.498Z,129.38
2022-08-14T05:15:27.398Z,135.00
2022-08-14T05:16:26.397Z,135.00
2022-08-14T05:17:32.033Z,140.62
2022-08-14T05:19:17.082Z,140.62
2022-08-14T05:19:29.110Z,140.62
2022-08-14T05:21:55.430Z,146.25
2022-08-14T05:21:57.281Z,140.62
2022-08-14T05:22:27.360Z,146.25
2022-08-14T05:23:26.301Z,146.25
2022-08-14T05:24:26.296Z,140.62
2022-08-14T05:25:30.632Z,146.25
2022-08-14T05:26:27.261Z,151.88
2022-08-14T05:27:26.251Z,151.88
2022-08-14T05:28:26.233Z,157.50
2022-08-14T05:29:26.222Z,157.50
2022-08-14T05:30:26.221Z,157.50
2022-08-14T05:31:39.739Z,157.50
2022-08-14T05:32:28.186Z,151.88
2022-08-14T05:33:26.169Z,151.88
2022-08-14T05:34:28.953Z,157.50
2022-08-14T05:35:27.152Z,157.50
2022-08-14T05:36:27.100Z,151.88
2022-08-14T05:37:26.164Z,146.25
2022-08-14T05:38:31.058Z,146.25
2022-08-14T05:39:27.138Z,151.88
2022-08-14T05:40:26.092Z,151.88
2022-08-14T05:41:43.651Z,151.88
2022-08-14T05:42:31.882Z,151.88
2022-08-14T05:43:40.994Z,151.88
2022-08-14T05:44:30.288Z,151.88
2022-08-14T05:45:26.032Z,157.50
2022-08-14T05:46:26.010Z,157.50
2022-08-14T05:47:33.707Z,168.75
2022-08-14T05:48:33.506Z,180.00
2022-08-14T05:49:32.814Z,180.00
2022-08-14T05:50:27.022Z,174.38
2022-08-14T05:51:25.965Z,180.00
2022-08-14T05:52:33.879Z,185.62
2022-08-14T05:53:26.923Z,196.88
2022-08-14T05:54:27.166Z,196.88
2022-08-14T05:55:25.904Z,196.88
2022-08-14T05:56:25.895Z,196.88
2022-08-14T05:57:25.874Z,196.88
2022-08-14T05:58:33.809Z,202.50
2022-08-14T05:59:36.872Z,185.62
2022-08-14T06:00:29.382Z,180.00
2022-08-14T06:01:26.850Z,185.62
2022-08-14T06:02:25.805Z,174.38
2022-08-14T06:03:26.286Z,174.38
2022-08-14T06:04:25.783Z,174.38
2022-08-14T06:05:28.977Z,174.38
2022-08-14T06:06:26.155Z,180.00
2022-08-14T06:07:25.757Z,180.00
2022-08-14T06:08:36.546Z,180.00
2022-08-14T06:09:26.717Z,174.38
2022-08-14T06:10:25.729Z,174.38
2022-08-14T06:11:31.063Z,174.38
2022-08-14T06:12:56.060Z,174.38
2022-08-14T06:13:31.525Z,174.38
2022-08-14T06:14:26.706Z,174.38
2022-08-14T06:15:29.630Z,191.25
2022-08-14T06:16:25.725Z,180.00
2022-08-14T06:17:26.186Z,180.00
2022-08-14T06:18:25.599Z,180.00
2022-08-14T06:19:26.591Z,180.00
2022-08-14T06:20:25.577Z,180.00
2022-08-14T06:21:26.009Z,180.00
2022-08-14T06:22:25.550Z,180.00
2022-08-14T06:23:25.552Z,180.00
2022-08-14T06:24:25.989Z,180.00
2022-08-14T06:25:26.066Z,185.62
2022-08-14T06:26:30.033Z,191.25
2022-08-14T06:27:26.480Z,196.88
2022-08-14T06:28:27.895Z,196.88
2022-08-14T06:29:25.451Z,202.50
2022-08-14T06:30:30.401Z,196.88
2022-08-14T06:31:26.460Z,202.50
2022-08-14T06:32:37.742Z,208.12
2022-08-14T06:35:01.202Z,219.38
2022-08-14T06:35:11.097Z,208.12
2022-08-14T06:35:26.552Z,219.38
2022-08-14T06:36:25.381Z,253.12
2022-08-14T06:37:25.400Z,253.12
2022-08-14T06:38:25.331Z,225.00
2022-08-14T06:39:36.602Z,213.75
2022-08-14T06:40:27.686Z,225.00
2022-08-14T06:41:58.289Z,258.75
2022-08-14T06:42:32.955Z,236.25
2022-08-14T06:43:31.825Z,219.38
2022-08-14T06:44:30.592Z,225.00
2022-08-14T06:45:26.362Z,230.62
2022-08-14T06:46:34.412Z,247.50
2022-08-14T06:47:26.224Z,241.88
2022-08-14T06:48:25.215Z,230.62
2022-08-14T06:49:25.203Z,241.88
2022-08-14T06:50:28.029Z,241.88
2022-08-14T06:51:25.175Z,270.00
2022-08-14T06:52:26.175Z,270.00
2022-08-14T06:53:27.681Z,264.38
2022-08-14T06:54:31.492Z,270.00
2022-08-14T06:55:28.126Z,275.62
2022-08-14T06:56:25.112Z,281.25
2022-08-14T06:57:25.086Z,281.25
2022-08-14T06:58:29.302Z,270.00
2022-08-14T06:59:26.067Z,286.88
2022-08-14T07:00:26.996Z,286.88
2022-08-14T07:01:26.974Z,275.62
2022-08-14T07:02:25.047Z,275.62
2022-08-14T07:03:25.031Z,292.50
2022-08-14T07:04:25.018Z,292.50
2022-08-14T07:05:25.079Z,286.88
2022-08-14T07:06:45.504Z,292.50
2022-08-14T07:07:28.689Z,292.50
2022-08-14T07:08:25.728Z,292.50
2022-08-14T07:09:24.940Z,298.12
2022-08-14T07:10:25.499Z,298.12
2022-08-14T07:11:24.915Z,298.12
2022-08-14T07:12:52.002Z,298.12
2022-08-14T07:13:25.899Z,303.75
2022-08-14T07:14:24.876Z,303.75
2022-08-14T07:15:25.007Z,292.50
2022-08-14T07:16:27.303Z,298.12
2022-08-14T07:17:24.868Z,303.75
2022-08-14T07:18:24.860Z,303.75
2022-08-14T07:19:24.812Z,303.75
2022-08-14T07:20:30.840Z,303.75
2022-08-14T07:21:25.791Z,303.75
2022-08-14T07:22:24.802Z,303.75
2022-08-14T07:23:25.827Z,303.75
2022-08-14T07:24:31.193Z,303.75
2022-08-14T07:25:32.237Z,303.75
2022-08-14T07:26:25.720Z,303.75
2022-08-14T07:27:24.711Z,309.38
2022-08-14T07:28:24.700Z,309.38
2022-08-14T07:29:28.018Z,303.75
2022-08-14T07:30:33.702Z,309.38
2022-08-14T07:31:25.693Z,309.38
2022-08-14T07:32:33.874Z,298.12
2022-08-14T07:33:29.971Z,298.12
2022-08-14T07:34:36.034Z,303.75
2022-08-14T07:35:25.684Z,309.38
2022-08-14T07:36:29.970Z,309.38
2022-08-14T07:37:25.582Z,309.38
2022-08-14T07:38:24.585Z,309.38
2022-08-14T07:39:27.974Z,315.00
2022-08-14T07:40:27.469Z,309.38
2022-08-14T07:41:33.518Z,309.38
2022-08-14T07:42:25.525Z,309.38
2022-08-14T07:43:24.505Z,309.38
2022-08-14T07:44:32.482Z,309.38
2022-08-14T07:45:25.484Z,315.00
2022-08-14T07:46:28.434Z,309.38
2022-08-14T07:47:24.493Z,315.00
2022-08-14T07:48:24.809Z,320.62
2022-08-14T07:49:24.551Z,326.25
2022-08-14T07:50:24.427Z,326.25
2022-08-14T07:51:26.112Z,337.50
2022-08-14T07:52:30.992Z,343.12
2022-08-14T07:53:25.375Z,343.12
2022-08-14T07:54:29.859Z,343.12
2022-08-14T07:55:25.417Z,343.12
2022-08-14T07:56:46.958Z,348.75
2022-08-14T07:57:25.364Z,348.75
2022-08-14T07:58:34.318Z,348.75
2022-08-14T07:59:41.180Z,348.75
2022-08-14T08:00:30.033Z,348.75
2022-08-14T08:01:25.267Z,354.38
2022-08-14T08:02:24.267Z,354.38
2022-08-14T08:03:24.328Z,354.38
2022-08-14T08:04:25.274Z,354.38
2022-08-14T08:05:24.219Z,360.00
2022-08-14T08:06:24.218Z,360.00
2022-08-14T08:07:24.259Z,360.00
2022-08-14T08:08:26.942Z,360.00
2022-08-14T08:09:24.168Z,354.38
2022-08-14T08:10:46.334Z,354.38
2022-08-14T08:11:25.157Z,354.38
2022-08-14T08:12:29.617Z,348.75
2022-08-14T08:13:25.131Z,348.75
2022-08-14T08:14:24.120Z,343.12
2022-08-14T08:15:24.110Z,337.50
2022-08-14T08:16:24.147Z,337.50
2022-08-14T08:17:24.300Z,337.50
2022-08-14T08:18:27.536Z,337.50
2022-08-14T08:19:25.050Z,337.50
2022-08-14T08:20:24.029Z,343.12
2022-08-14T08:21:27.086Z,337.50
2022-08-14T08:22:27.388Z,337.50
2022-08-14T08:23:30.290Z,337.50
2022-08-14T08:24:24.971Z,348.75
2022-08-14T08:25:23.961Z,348.75
2022-08-14T08:26:23.953Z,360.00
2022-08-14T08:27:23.960Z,365.62
2022-08-14T08:28:25.426Z,365.62
2022-08-14T08:29:28.714Z,371.25
2022-08-14T08:30:24.914Z,371.25
2022-08-14T08:31:23.954Z,365.62
2022-08-14T08:32:30.010Z,376.88
2022-08-14T08:33:24.884Z,371.25
2022-08-14T08:34:24.257Z,365.62
2022-08-14T08:35:23.900Z,365.62
2022-08-14T08:36:23.833Z,365.62
2022-08-14T08:37:25.155Z,365.62
2022-08-14T08:39:18.226Z,365.62
2022-08-14T08:39:24.869Z,371.25
2022-08-14T08:40:31.278Z,360.00
2022-08-14T08:41:24.766Z,360.00
2022-08-14T08:42:24.628Z,365.62
2022-08-14T08:43:24.757Z,365.62
2022-08-14T08:44:32.747Z,365.62
2022-08-14T08:45:24.715Z,371.25
2022-08-14T08:46:24.331Z,365.62
2022-08-14T08:47:23.687Z,371.25
2022-08-14T08:48:35.591Z,376.88
2022-08-14T08:49:24.698Z,376.88
2022-08-14T08:50:31.635Z,376.88
2022-08-14T08:51:24.999Z,376.88
2022-08-14T08:52:31.589Z,376.88
2022-08-14T08:53:24.610Z,371.25
2022-08-14T08:54:26.672Z,376.88
2022-08-14T08:55:24.600Z,388.12
2022-08-14T08:56:30.532Z,388.12
2022-08-14T08:57:24.571Z,393.75
2022-08-14T08:58:25.064Z,393.75
2022-08-14T08:59:27.025Z,393.75
2022-08-14T09:00:26.280Z,393.75
2022-08-14T09:01:23.612Z,388.12
2022-08-14T09:02:26.093Z,382.50
2022-08-14T09:03:23.487Z,393.75
2022-08-14T09:04:23.480Z,382.50
2022-08-14T09:05:23.478Z,388.12
2022-08-14T09:07:00.260Z,388.12
2022-08-14T09:07:24.531Z,393.75
2022-08-14T09:08:31.610Z,393.75
2022-08-14T09:09:24.454Z,388.12
2022-08-14T09:10:23.413Z,388.12
2022-08-14T09:11:23.462Z,393.75
2022-08-14T09:12:23.389Z,388.12
2022-08-14T09:13:23.375Z,388.12
2022-08-14T09:14:23.357Z,382.50
2022-08-14T09:15:24.049Z,371.25
2022-08-14T09:16:23.720Z,376.88
2022-08-14T09:17:25.995Z,371.25
2022-08-14T09:18:23.362Z,371.25
2022-08-14T09:19:23.288Z,371.25
2022-08-14T09:20:26.479Z,348.75
2022-08-14T09:21:25.088Z,337.50
2022-08-14T09:22:36.482Z,337.50
2022-08-14T09:23:34.620Z,331.88
2022-08-14T09:24:28.442Z,331.88
2022-08-14T09:26:00.083Z,326.25
2022-08-14T09:26:24.214Z,331.88
2022-08-14T09:27:23.457Z,343.12
2022-08-14T09:28:24.232Z,331.88
2022-08-14T09:29:23.771Z,331.88
2022-08-14T09:30:32.095Z,337.50
2022-08-14T09:31:24.147Z,354.38
2022-08-14T09:32:58.619Z,371.25
2022-08-14T09:33:24.147Z,376.88
2022-08-14T09:34:27.839Z,382.50
2022-08-14T09:35:24.086Z,388.12
2022-08-14T09:36:23.087Z,393.75
2022-08-14T09:37:23.106Z,393.75
2022-08-14T09:38:26.084Z,393.75
2022-08-14T09:39:23.733Z,399.38
2022-08-14T09:40:23.137Z,399.38
2022-08-14T09:41:23.028Z,393.75
2022-08-14T09:42:33.536Z,393.75
2022-08-14T09:43:24.012Z,405.00
2022-08-14T09:44:22.983Z,410.62
2022-08-14T09:45:22.981Z,410.62
2022-08-14T09:46:25.765Z,416.25
2022-08-14T09:47:22.961Z,416.25
2022-08-14T09:48:27.912Z,410.62
2022-08-14T09:49:23.919Z,427.50
2022-08-14T09:50:23.830Z,427.50
2022-08-14T09:51:22.911Z,433.12
2022-08-14T09:52:33.567Z,427.50
2022-08-14T09:53:23.890Z,427.50
2022-08-14T09:54:24.052Z,427.50
2022-08-14T09:55:22.852Z,433.12
2022-08-14T09:56:30.161Z,399.38
2022-08-14T09:57:23.824Z,399.38
2022-08-14T09:58:24.667Z,433.12
2022-08-14T09:59:22.813Z,438.75
2022-08-14T10:00:29.198Z,399.38
2022-08-14T10:01:24.789Z,393.75
2022-08-14T10:02:22.817Z,427.50
2022-08-14T10:03:22.752Z,450.00
2022-08-14T10:04:34.209Z,455.62
2022-08-14T10:05:23.735Z,450.00
2022-08-14T10:06:22.712Z,455.62
2022-08-14T10:07:22.704Z,466.88
2022-08-14T10:08:26.445Z,450.00
2022-08-14T10:09:24.811Z,450.00
2022-08-14T10:10:23.361Z,450.00
2022-08-14T10:11:23.303Z,438.75
2022-08-14T10:12:29.062Z,450.00
2022-08-14T10:13:23.742Z,461.25
2022-08-14T10:14:29.345Z,438.75
2022-08-14T10:15:23.868Z,427.50
2022-08-14T10:16:27.328Z,438.75
2022-08-14T10:17:23.577Z,444.38
2022-08-14T10:18:22.566Z,461.25
2022-08-14T10:19:22.548Z,450.00
2022-08-14T10:20:40.846Z,444.38
2022-08-14T10:21:23.515Z,455.62
2022-08-14T10:23:12.425Z,450.00
2022-08-14T10:23:23.578Z,438.75
2022-08-14T10:24:22.477Z,444.38
2022-08-14T10:25:22.558Z,444.38
2022-08-14T10:26:28.198Z,433.12
2022-08-14T10:27:23.486Z,433.12
2022-08-14T10:28:39.601Z,416.25
2022-08-14T10:29:23.851Z,416.25
2022-08-14T10:30:25.549Z,421.88
2022-08-14T10:31:25.619Z,421.88
2022-08-14T10:32:29.125Z,438.75
2022-08-14T10:33:23.411Z,438.75
2022-08-14T10:34:29.050Z,444.38
2022-08-14T10:35:27.697Z,444.38
2022-08-14T10:36:37.272Z,450.00
2022-08-14T10:37:23.825Z,455.62
2022-08-14T10:38:22.301Z,455.62
2022-08-14T10:39:22.317Z,455.62
2022-08-14T10:40:38.292Z,455.62
2022-08-14T10:41:23.292Z,450.00
2022-08-14T10:42:23.252Z,450.00
2022-08-14T10:43:23.256Z,455.62
2022-08-14T10:44:22.235Z,461.25
2022-08-14T10:45:22.238Z,455.62
2022-08-14T10:47:39.808Z,455.62
2022-08-14T10:47:41.511Z,450.00
2022-08-14T10:48:34.472Z,450.00
2022-08-14T10:49:23.381Z,444.38
2022-08-14T10:50:22.164Z,444.38
2022-08-14T10:51:22.164Z,455.62
2022-08-14T10:52:22.200Z,461.25
2022-08-14T10:53:22.129Z,461.25
2022-08-14T10:54:35.784Z,461.25
2022-08-14T10:55:23.127Z,455.62
2022-08-14T10:56:33.983Z,461.25
2022-08-14T10:57:23.129Z,455.62
2022-08-14T10:58:22.093Z,450.00
2022-08-14T10:59:22.060Z,450.00
2022-08-14T11:00:30.123Z,455.62
2022-08-14T11:01:23.037Z,455.62
2022-08-14T11:02:35.804Z,455.62
2022-08-14T11:03:26.687Z,455.62
2022-08-14T11:04:25.873Z,466.88
2022-08-14T11:05:21.978Z,466.88
2022-08-14T11:06:21.970Z,472.50
2022-08-14T11:07:21.958Z,466.88
2022-08-14T11:08:21.951Z,472.50
2022-08-14T11:09:22.450Z,478.12
2022-08-14T11:10:21.911Z,483.75
2022-08-14T11:11:21.911Z,478.12
2022-08-14T11:12:33.753Z,478.12
2022-08-14T11:13:24.223Z,478.12
2022-08-14T11:14:23.029Z,478.12
2022-08-14T11:15:21.861Z,478.12
2022-08-14T11:16:21.842Z,478.12
2022-08-14T11:17:21.970Z,388.12
2022-08-14T11:18:32.370Z,478.12
2022-08-14T11:19:24.270Z,478.12
2022-08-14T11:20:23.982Z,478.12
2022-08-14T11:21:21.781Z,478.12
2022-08-14T11:22:52.944Z,472.50
2022-08-14T11:23:22.752Z,472.50
2022-08-14T11:24:53.922Z,348.75
2022-08-14T11:25:22.801Z,472.50
2022-08-14T11:26:21.725Z,450.00
2022-08-14T11:27:25.761Z,455.62
2022-08-14T11:28:46.395Z,450.00
2022-08-14T11:29:24.692Z,444.38
2022-08-14T11:30:49.071Z,438.75
2022-08-14T11:31:22.694Z,455.62
2022-08-14T11:32:21.646Z,444.38
2022-08-14T11:33:21.629Z,365.62
2022-08-14T11:34:32.325Z,450.00
2022-08-14T11:35:22.614Z,444.38
2022-08-14T11:36:21.586Z,444.38
2022-08-14T11:37:35.288Z,455.62
2022-08-14T11:38:22.567Z,455.62
2022-08-14T11:39:33.690Z,393.75
2022-08-14T11:40:28.500Z,399.38
2022-08-14T11:41:22.538Z,455.62
2022-08-14T11:42:56.641Z,455.62
2022-08-14T11:43:22.627Z,466.88
2022-08-14T11:44:45.039Z,450.00
2022-08-14T11:45:23.211Z,466.88
2022-08-14T11:46:30.292Z,371.25
2022-08-14T11:47:22.461Z,438.75
2022-08-14T11:49:02.799Z,320.62
2022-08-14T11:49:22.459Z,433.12
2022-08-14T11:50:33.646Z,315.00
2022-08-14T11:51:24.161Z,315.00
2022-08-14T11:52:21.602Z,315.00
2022-08-14T11:53:21.402Z,365.62
2022-08-14T11:54:34.099Z,348.75
2022-08-14T11:55:25.583Z,466.88
2022-08-14T11:56:25.299Z,360.00
2022-08-14T11:57:22.751Z,348.75
2022-08-14T11:58:24.350Z,472.50
2022-08-14T11:59:26.473Z,483.75
2022-08-14T12:00:22.291Z,483.75
2022-08-14T12:01:22.295Z,495.00
2022-08-14T12:03:01.162Z,489.38
2022-08-14T12:03:37.759Z,500.62
2022-08-14T12:04:32.449Z,365.62
2022-08-14T12:05:22.253Z,343.12
2022-08-14T12:06:28.927Z,331.88
2022-08-14T12:07:22.232Z,320.62
2022-08-14T12:08:24.416Z,331.88
2022-08-14T12:09:21.212Z,326.25
2022-08-14T12:10:26.400Z,326.25
2022-08-14T12:11:22.178Z,483.75
2022-08-14T12:12:35.656Z,489.38
2022-08-14T12:13:22.373Z,489.38
2022-08-14T12:14:34.903Z,489.38
2022-08-14T12:15:22.134Z,489.38
2022-08-14T12:16:22.869Z,495.00
2022-08-14T12:17:23.406Z,495.00
2022-08-14T12:18:21.076Z,500.62
2022-08-14T12:19:21.066Z,495.00
2022-08-14T12:20:29.808Z,495.00
2022-08-14T12:21:22.058Z,495.00
2022-08-14T12:22:29.828Z,495.00
2022-08-14T12:23:22.028Z,495.00
2022-08-14T12:24:36.191Z,495.00
2022-08-14T12:25:24.868Z,495.00
2022-08-14T12:26:39.883Z,495.00
2022-08-14T12:27:24.896Z,489.38
2022-08-14T12:28:27.149Z,489.38
2022-08-14T12:29:21.949Z,489.38
2022-08-14T12:30:21.334Z,489.38
2022-08-14T12:31:20.944Z,495.00
2022-08-14T12:32:20.900Z,495.00
2022-08-14T12:33:20.901Z,495.00
2022-08-14T12:34:24.108Z,500.62
2022-08-14T12:35:20.901Z,506.25
2022-08-14T12:36:20.950Z,506.25
2022-08-14T12:37:20.843Z,511.88
2022-08-14T12:38:21.252Z,506.25
2022-08-14T12:39:21.052Z,506.25
2022-08-14T12:40:21.134Z,489.38
2022-08-14T12:41:21.852Z,489.38
2022-08-14T12:42:33.885Z,500.62
2022-08-14T12:43:21.777Z,506.25
2022-08-14T12:44:20.763Z,511.88
2022-08-14T12:45:20.754Z,517.50